createdAt,value
2022-08-26T00:00:52.121Z,26.60
2022-08-26T00:03:20.330Z,26.60
2022-08-26T00:05:48.920Z,26.40
2022-08-26T00:08:17.401Z,26.40
2022-08-26T00:10:45.300Z,26.50
2022-08-26T00:13:13.939Z,26.60
2022-08-26T00:15:42.493Z,26.50
2022-08-26T00:18:21.874Z,26.40
2022-08-26T00:20:50.984Z,26.40
2022-08-26T00:23:19.111Z,26.50
2022-08-26T00:25:47.811Z,26.60
2022-08-26T00:28:16.562Z,26.50
2022-08-26T00:30:49.380Z,26.50
2022-08-26T00:33:22.492Z,26.40
2022-08-26T00:35:50.820Z,26.20
2022-08-26T00:38:20.771Z,26.10
2022-08-26T00:40:50.603Z,26.10
2022-08-26T00:43:19.654Z,26.10
2022-08-26T00:45:52.526Z,26.20
2022-08-26T00:48:25.262Z,26.10
2022-08-26T00:50:56.817Z,26.10
2022-08-26T00:53:28.226Z,26.10
2022-08-26T00:56:03.805Z,26.20
2022-08-26T00:58:34.267Z,26.20
2022-08-26T01:01:02.754Z,26.20
2022-08-26T01:03:34.583Z,26.10
2022-08-26T01:06:03.907Z,26.10
2022-08-26T01:08:32.265Z,26.00
2022-08-26T01:11:01.543Z,26.20
2022-08-26T01:13:30.557Z,26.20
2022-08-26T01:16:01.811Z,26.10
2022-08-26T01:18:31.829Z,26.00
2022-08-26T01:21:06.330Z,25.90
2022-08-26T01:23:40.189Z,25.90
2022-08-26T01:26:18.265Z,25.80
2022-08-26T01:28:51.697Z,25.90
2022-08-26T01:31:23.965Z,25.90
2022-08-26T01:34:02.200Z,25.90
2022-08-26T01:36:30.857Z,25.80
2022-08-26T01:39:00.237Z,25.90
2022-08-26T01:41:29.146Z,25.80
2022-08-26T01:43:58.124Z,25.80
2022-08-26T01:46:30.416Z,25.80
2022-08-26T01:49:00.985Z,25.80
2022-08-26T01:51:30.604Z,25.80
2022-08-26T01:54:00.355Z,25.80
2022-08-26T01:56:33.398Z,25.80
2022-08-26T01:59:07.375Z,25.60
2022-08-26T02:01:37.907Z,25.60
2022-08-26T02:04:14.560Z,25.60
2022-08-26T02:06:43.615Z,25.60
2022-08-26T02:09:13.669Z,25.50
2022-08-26T02:11:43.602Z,25.50
2022-08-26T02:14:15.184Z,25.40
2022-08-26T02:16:46.957Z,25.30
2022-08-26T02:19:19.165Z,25.20
2022-08-26T02:21:50.981Z,25.10
2022-08-26T02:24:27.363Z,25.10
2022-08-26T02:26:56.226Z,25.20
2022-08-26T02:29:26.897Z,25.30
2022-08-26T02:31:56.232Z,25.40
2022-08-26T02:34:31.218Z,25.30
2022-08-26T02:37:00.355Z,25.30
2022-08-26T02:39:30.634Z,25.40
2022-08-26T02:41:59.678Z,25.30
2022-08-26T02:44:28.405Z,25.40
2022-08-26T02:46:56.602Z,25.30
2022-08-26T02:49:25.524Z,25.40
2022-08-26T02:51:54.498Z,25.40
2022-08-26T02:54:23.065Z,25.30
2022-08-26T02:56:52.965Z,25.30
2022-08-26T02:59:24.490Z,25.30
2022-08-26T03:01:56.044Z,25.20
2022-08-26T03:04:25.881Z,25.20
2022-08-26T03:06:55.660Z,25.20
2022-08-26T03:09:24.425Z,25.10
2022-08-26T03:11:55.684Z,25.00
2022-08-26T03:14:24.270Z,25.10
2022-08-26T03:16:54.293Z,25.00
2022-08-26T03:19:24.195Z,25.00
2022-08-26T03:21:53.182Z,25.10
2022-08-26T03:24:26.644Z,25.00
2022-08-26T03:26:56.123Z,25.10
2022-08-26T03:29:43.084Z,25.20
2022-08-26T03:32:11.561Z,25.20
2022-08-26T03:34:39.567Z,25.00
2022-08-26T03:37:08.044Z,24.90
2022-08-26T03:39:37.264Z,25.00
2022-08-26T03:42:07.104Z,24.90
2022-08-26T03:44:37.135Z,24.90
2022-08-26T03:47:09.935Z,24.90
2022-08-26T03:49:38.255Z,25.00
2022-08-26T03:52:07.215Z,25.00
2022-08-26T03:54:36.036Z,25.20
2022-08-26T03:57:05.655Z,25.20
2022-08-26T03:59:33.915Z,25.10
2022-08-26T04:02:01.899Z,25.20
2022-08-26T04:04:30.424Z,25.10
2022-08-26T04:06:59.891Z,25.00
2022-08-26T04:09:28.416Z,25.00
2022-08-26T04:11:58.796Z,25.00
2022-08-26T04:14:28.564Z,24.90
2022-08-26T04:16:56.885Z,24.90
2022-08-26T04:19:26.384Z,24.80
2022-08-26T04:21:54.533Z,24.70
2022-08-26T04:24:24.456Z,24.70
2022-08-26T04:26:53.001Z,24.70
2022-08-26T04:29:24.464Z,24.70
2022-08-26T04:31:57.773Z,24.70
2022-08-26T04:34:28.733Z,24.60
2022-08-26T04:36:58.213Z,24.60
2022-08-26T04:39:27.800Z,24.60
2022-08-26T04:41:57.857Z,24.60
2022-08-26T04:44:28.156Z,24.60
2022-08-26T04:46:58.894Z,24.70
2022-08-26T04:49:27.874Z,24.70
2022-08-26T04:52:03.939Z,24.60
2022-08-26T04:54:32.896Z,24.60
2022-08-26T04:57:01.032Z,24.60
2022-08-26T04:59:29.245Z,24.50
2022-08-26T05:01:59.891Z,24.50
2022-08-26T05:04:28.225Z,24.60
2022-08-26T05:07:02.461Z,24.60
2022-08-26T05:09:31.273Z,24.50
2022-08-26T05:11:59.214Z,24.50
2022-08-26T05:14:27.304Z,24.50
2022-08-26T05:16:55.949Z,24.50
2022-08-26T05:19:27.831Z,24.60
2022-08-26T05:21:56.256Z,24.60
2022-08-26T05:24:24.583Z,24.70
2022-08-26T05:26:53.291Z,24.50
2022-08-26T05:29:21.226Z,24.30
2022-08-26T05:31:52.384Z,24.20
2022-08-26T05:34:21.114Z,24.30
2022-08-26T05:36:50.780Z,24.40
2022-08-26T05:39:19.284Z,24.50
2022-08-26T05:41:47.355Z,24.60
2022-08-26T05:44:19.083Z,24.70
2022-08-26T05:46:47.609Z,24.80
2022-08-26T05:49:16.647Z,24.90
2022-08-26T05:51:47.609Z,24.90
2022-08-26T05:54:21.667Z,24.80
2022-08-26T05:56:51.688Z,24.90
2022-08-26T05:59:24.022Z,25.00
2022-08-26T06:01:54.981Z,25.00
2022-08-26T06:04:27.524Z,25.00
2022-08-26T06:06:57.777Z,25.10
2022-08-26T06:09:27.626Z,25.20
2022-08-26T06:11:56.255Z,25.20
2022-08-26T06:14:25.156Z,25.10
2022-08-26T06:16:52.983Z,25.00
2022-08-26T06:19:22.151Z,25.10
2022-08-26T06:21:54.088Z,25.30
2022-08-26T06:24:41.701Z,25.30
2022-08-26T06:27:15.153Z,25.20
2022-08-26T06:29:43.216Z,25.30
2022-08-26T06:32:11.063Z,25.30
2022-08-26T06:34:38.913Z,25.40
2022-08-26T06:37:07.455Z,25.40
2022-08-26T06:39:35.303Z,25.40
2022-08-26T06:42:08.565Z,25.60
2022-08-26T06:44:38.074Z,25.60
2022-08-26T06:47:09.183Z,25.70
2022-08-26T06:49:37.414Z,25.80
2022-08-26T06:52:05.369Z,25.70
2022-08-26T06:54:33.575Z,25.80
2022-08-26T06:57:01.808Z,25.80
2022-08-26T06:59:31.371Z,25.70
2022-08-26T07:02:00.759Z,25.80
2022-08-26T07:04:30.374Z,26.00
2022-08-26T07:06:58.363Z,26.10
2022-08-26T07:09:28.294Z,26.10
2022-08-26T07:11:56.736Z,26.20
2022-08-26T07:14:36.622Z,26.20
2022-08-26T07:17:10.056Z,26.30
2022-08-26T07:19:40.213Z,26.30
2022-08-26T07:22:08.613Z,26.40
2022-08-26T07:24:42.501Z,26.40
2022-08-26T07:27:12.852Z,26.40
2022-08-26T07:29:42.604Z,26.60
2022-08-26T07:32:13.801Z,26.60
2022-08-26T07:34:42.500Z,26.70
2022-08-26T07:37:10.466Z,26.70
2022-08-26T07:39:40.371Z,26.70
2022-08-26T07:42:09.417Z,26.70
2022-08-26T07:44:38.399Z,26.60
2022-08-26T07:47:24.118Z,26.70
2022-08-26T07:49:57.800Z,26.70
2022-08-26T07:52:28.657Z,26.80
2022-08-26T07:54:58.415Z,26.90
2022-08-26T07:57:26.655Z,27.00
2022-08-26T07:59:55.751Z,27.10
2022-08-26T08:02:24.665Z,27.10
2022-08-26T08:04:55.230Z,27.20
2022-08-26T08:07:38.304Z,27.20
2022-08-26T08:10:13.653Z,27.20
2022-08-26T08:12:42.213Z,27.30
2022-08-26T08:15:14.025Z,27.40
2022-08-26T08:17:43.708Z,27.50
2022-08-26T08:20:14.787Z,27.60
2022-08-26T08:22:43.387Z,27.60
2022-08-26T08:25:12.154Z,27.60
2022-08-26T08:27:42.492Z,27.60
2022-08-26T08:30:13.798Z,27.60
2022-08-26T08:32:43.778Z,27.70
2022-08-26T08:35:15.295Z,27.80
2022-08-26T08:37:44.074Z,27.80
2022-08-26T08:40:16.661Z,27.80
2022-08-26T08:42:47.468Z,27.80
2022-08-26T08:45:34.490Z,27.90
2022-08-26T08:48:07.130Z,28.00
2022-08-26T08:50:43.213Z,28.10
2022-08-26T08:53:19.100Z,28.20
2022-08-26T08:56:06.521Z,28.20
2022-08-26T08:58:51.883Z,28.40
2022-08-26T09:01:35.172Z,28.50
2022-08-26T09:04:20.165Z,28.60
2022-08-26T09:06:54.129Z,28.80
2022-08-26T09:09:29.999Z,28.80
2022-08-26T09:11:58.961Z,28.90
2022-08-26T09:14:28.201Z,28.90
2022-08-26T09:17:05.635Z,29.00
2022-08-26T09:19:40.579Z,28.90
2022-08-26T09:22:10.092Z,28.90
2022-08-26T09:24:41.828Z,29.00
2022-08-26T09:27:11.389Z,29.00
2022-08-26T09:29:45.063Z,29.10
2022-08-26T09:32:22.306Z,29.20
2022-08-26T09:34:56.375Z,29.20
2022-08-26T09:37:39.444Z,29.30
2022-08-26T09:40:30.271Z,29.30
2022-08-26T09:43:13.827Z,29.40
2022-08-26T09:45:50.496Z,29.50
2022-08-26T09:48:29.359Z,29.70
2022-08-26T09:51:00.033Z,29.70
2022-08-26T09:53:32.509Z,29.90
2022-08-26T09:56:14.940Z,30.00
2022-08-26T09:58:45.979Z,29.80
2022-08-26T10:01:25.326Z,29.80
2022-08-26T10:03:53.659Z,29.90
2022-08-26T10:06:24.911Z,29.90
2022-08-26T10:08:58.631Z,29.90
2022-08-26T10:11:42.834Z,30.00
2022-08-26T10:14:16.160Z,30.10
2022-08-26T10:16:50.870Z,30.40
2022-08-26T10:19:22.571Z,30.60
2022-08-26T10:21:55.268Z,30.70
2022-08-26T10:24:30.771Z,30.60
2022-08-26T10:27:03.020Z,30.60
2022-08-26T10:29:36.169Z,30.80
2022-08-26T10:32:13.906Z,30.90
2022-08-26T10:34:42.656Z,31.00
2022-08-26T10:37:16.444Z,31.30
2022-08-26T10:39:58.541Z,31.60
2022-08-26T10:42:32.593Z,31.70
2022-08-26T10:45:11.824Z,31.70
2022-08-26T10:47:47.753Z,31.90
2022-08-26T10:50:18.087Z,31.90
2022-08-26T10:53:02.508Z,32.10
2022-08-26T10:55:39.155Z,32.20
2022-08-26T10:58:26.422Z,32.20
2022-08-26T11:01:22.777Z,32.40
2022-08-26T11:04:05.302Z,32.20
2022-08-26T11:06:34.048Z,32.00
2022-08-26T11:09:07.169Z,32.00
2022-08-26T11:11:50.934Z,31.90
2022-08-26T11:14:40.739Z,32.10
2022-08-26T11:17:56.812Z,32.30
2022-08-26T11:20:36.893Z,32.60
2022-08-26T11:23:45.704Z,32.80
2022-08-26T11:26:35.795Z,32.90
2022-08-26T11:29:13.349Z,33.20
2022-08-26T11:31:54.927Z,33.00
2022-08-26T11:34:56.393Z,33.10
2022-08-26T11:37:32.852Z,33.30
2022-08-26T11:40:04.024Z,33.40
2022-08-26T11:42:41.667Z,33.50
2022-08-26T11:45:25.397Z,33.60
2022-08-26T11:47:54.850Z,33.60
2022-08-26T11:50:26.495Z,33.60
2022-08-26T11:52:56.623Z,33.40
2022-08-26T11:55:25.221Z,33.30
2022-08-26T11:57:57.032Z,33.40
2022-08-26T12:00:33.403Z,33.40
2022-08-26T12:03:08.550Z,33.40
2022-08-26T12:05:42.670Z,33.60
2022-08-26T12:08:16.732Z,33.90
2022-08-26T12:10:44.931Z,34.10
2022-08-26T12:13:23.041Z,34.30
2022-08-26T12:15:57.794Z,34.40
2022-08-26T12:18:30.468Z,34.30
2022-08-26T12:21:10.782Z,34.20
2022-08-26T12:23:44.242Z,34.40
2022-08-26T12:26:26.031Z,34.40
2022-08-26T12:28:57.513Z,34.40
2022-08-26T12:31:33.144Z,34.50
2022-08-26T12:34:03.932Z,34.70
2022-08-26T12:36:35.313Z,34.80
2022-08-26T12:39:09.181Z,34.80
2022-08-26T12:41:44.503Z,35.00
2022-08-26T12:44:38.620Z,35.20
2022-08-26T12:47:11.422Z,35.50
2022-08-26T12:49:41.381Z,35.50
2022-08-26T12:52:30.134Z,35.40
2022-08-26T12:55:00.330Z,35.50
2022-08-26T12:57:31.245Z,35.50
2022-08-26T13:00:31.617Z,35.50
2022-08-26T13:03:02.319Z,35.40
2022-08-26T13:05:38.728Z,35.60
2022-08-26T13:08:15.999Z,35.40
2022-08-26T13:10:47.414Z,35.00
2022-08-26T13:13:15.799Z,34.60
2022-08-26T13:15:43.600Z,34.30
2022-08-26T13:18:12.961Z,34.30
2022-08-26T13:20:45.113Z,34.50
2022-08-26T13:23:13.757Z,34.50
2022-08-26T13:25:42.050Z,34.50
2022-08-26T13:28:10.638Z,34.50
2022-08-26T13:30:41.021Z,34.50
2022-08-26T13:33:21.081Z,34.60
2022-08-26T13:35:50.580Z,34.60
2022-08-26T13:38:33.154Z,34.90
2022-08-26T13:41:04.145Z,35.10
2022-08-26T13:43:32.643Z,35.30
2022-08-26T13:46:01.850Z,35.10
2022-08-26T13:48:33.393Z,35.30
2022-08-26T13:51:03.152Z,35.30
2022-08-26T13:53:37.342Z,34.60
2022-08-26T13:56:10.836Z,34.40
2022-08-26T13:58:39.174Z,34.60
2022-08-26T14:01:07.373Z,34.40
2022-08-26T14:03:37.901Z,34.10
2022-08-26T14:06:07.018Z,33.70
2022-08-26T14:08:35.319Z,33.40
2022-08-26T14:11:04.107Z,33.30
2022-08-26T14:13:32.649Z,33.30
2022-08-26T14:16:03.473Z,33.30
2022-08-26T14:18:38.393Z,33.10
2022-08-26T14:21:13.609Z,33.10
2022-08-26T14:23:42.285Z,33.00
2022-08-26T14:26:14.340Z,33.00
2022-08-26T14:28:58.110Z,33.00
2022-08-26T14:31:27.297Z,33.20
2022-08-26T14:33:58.056Z,33.90
2022-08-26T14:36:32.621Z,34.80
2022-08-26T14:39:04.031Z,35.50
2022-08-26T14:41:38.765Z,36.20
2022-08-26T14:44:10.745Z,36.60
2022-08-26T14:46:43.853Z,36.70
2022-08-26T14:49:12.400Z,35.90
2022-08-26T14:51:42.186Z,36.20
2022-08-26T14:54:14.421Z,36.30
2022-08-26T14:56:47.105Z,36.90
2022-08-26T14:59:17.956Z,37.00
2022-08-26T15:01:46.302Z,36.30
2022-08-26T15:04:14.823Z,35.90
2022-08-26T15:06:44.677Z,35.40
2022-08-26T15:09:13.125Z,35.20
2022-08-26T15:11:41.595Z,34.90
2022-08-26T15:14:19.198Z,34.80
2022-08-26T15:16:50.638Z,34.80
2022-08-26T15:19:19.067Z,34.80
2022-08-26T15:21:49.008Z,34.90
2022-08-26T15:24:21.318Z,36.30
2022-08-26T15:26:49.976Z,37.20
2022-08-26T15:29:19.055Z,37.70
2022-08-26T15:31:47.910Z,38.20
2022-08-26T15:34:17.188Z,38.70
2022-08-26T15:36:48.266Z,39.20
2022-08-26T15:39:17.505Z,39.10
2022-08-26T15:41:45.853Z,39.00
2022-08-26T15:44:16.475Z,37.40
2022-08-26T15:46:45.222Z,36.90
2022-08-26T15:49:17.675Z,36.60
2022-08-26T15:51:50.607Z,36.00
2022-08-26T15:54:20.448Z,36.90
2022-08-26T15:56:50.957Z,37.00
2022-08-26T15:59:20.067Z,37.00
2022-08-26T16:01:48.478Z,37.00
2022-08-26T16:04:17.987Z,36.90
2022-08-26T16:06:50.572Z,36.80
2022-08-26T16:09:19.577Z,37.00
2022-08-26T16:11:47.598Z,36.70
2022-08-26T16:14:17.089Z,36.80
2022-08-26T16:16:45.342Z,36.30
2022-08-26T16:19:13.514Z,36.40
2022-08-26T16:21:43.006Z,36.70
2022-08-26T16:24:13.497Z,36.20
2022-08-26T16:26:44.286Z,35.90
2022-08-26T16:29:14.598Z,35.60
2022-08-26T16:31:43.203Z,35.70
2022-08-26T16:34:11.846Z,35.90
2022-08-26T16:36:40.587Z,36.30
2022-08-26T16:39:09.507Z,36.90
2022-08-26T16:41:39.488Z,36.50
2022-08-26T16:44:08.882Z,36.20
2022-08-26T16:46:37.351Z,36.00
2022-08-26T16:49:05.637Z,35.10
2022-08-26T16:51:38.161Z,34.60
2022-08-26T16:54:08.359Z,34.10
2022-08-26T16:56:37.080Z,33.50
2022-08-26T16:59:09.705Z,32.80
2022-08-26T17:01:37.953Z,32.40
2022-08-26T17:04:06.209Z,32.10
2022-08-26T17:06:34.587Z,32.00
2022-08-26T17:09:02.645Z,31.60
2022-08-26T17:11:31.055Z,31.30
2022-08-26T17:13:59.487Z,31.20
2022-08-26T17:16:29.382Z,31.20
2022-08-26T17:18:58.527Z,31.00
2022-08-26T17:21:28.251Z,30.80
2022-08-26T17:23:56.875Z,30.50
2022-08-26T17:26:24.949Z,30.50
2022-08-26T17:28:53.646Z,30.40
2022-08-26T17:31:22.288Z,30.20
2022-08-26T17:33:53.426Z,30.10
2022-08-26T17:36:23.356Z,30.00
2022-08-26T17:38:57.385Z,30.00
2022-08-26T17:41:26.294Z,29.80
2022-08-26T17:43:54.628Z,29.80
2022-08-26T17:46:23.551Z,29.70
2022-08-26T17:48:53.420Z,29.60
2022-08-26T17:51:23.008Z,29.40
2022-08-26T17:53:52.098Z,29.40
2022-08-26T17:56:24.452Z,29.30
2022-08-26T17:58:54.118Z,29.20
2022-08-26T18:01:26.339Z,29.20
2022-08-26T18:04:00.357Z,29.10
2022-08-26T18:06:30.955Z,29.10
2022-08-26T18:09:00.182Z,29.10
2022-08-26T18:11:31.686Z,28.90
2022-08-26T18:14:00.947Z,28.80
2022-08-26T18:16:32.003Z,28.80
2022-08-26T18:19:02.017Z,28.80
2022-08-26T18:21:30.278Z,28.80
2022-08-26T18:23:58.797Z,28.70
2022-08-26T18:26:29.857Z,28.70
2022-08-26T18:28:58.936Z,28.70
2022-08-26T18:31:27.949Z,28.70
2022-08-26T18:33:57.337Z,28.70
2022-08-26T18:36:31.017Z,28.60
2022-08-26T18:38:59.877Z,28.50
2022-08-26T18:41:29.954Z,28.40
2022-08-26T18:43:58.578Z,28.40
2022-08-26T18:46:28.649Z,28.30
2022-08-26T18:48:58.726Z,28.30
2022-08-26T18:51:30.439Z,28.20
2022-08-26T18:54:02.675Z,28.20
2022-08-26T18:56:32.158Z,28.30
2022-08-26T18:59:01.240Z,28.30
2022-08-26T19:01:30.738Z,28.40
2022-08-26T19:04:01.656Z,28.60
2022-08-26T19:06:33.390Z,28.70
2022-08-26T19:09:04.626Z,28.60
2022-08-26T19:11:42.925Z,28.60
2022-08-26T19:14:16.365Z,28.70
2022-08-26T19:16:47.157Z,28.80
2022-08-26T19:19:16.550Z,28.80
2022-08-26T19:21:47.457Z,28.70
2022-08-26T19:24:18.875Z,28.60
2022-08-26T19:26:57.582Z,28.60
2022-08-26T19:29:31.017Z,28.40
2022-08-26T19:32:02.937Z,28.30
2022-08-26T19:34:34.127Z,28.40
2022-08-26T19:37:05.588Z,28.40
2022-08-26T19:39:34.267Z,28.40
2022-08-26T19:42:02.668Z,28.40
2022-08-26T19:44:49.987Z,28.40
2022-08-26T19:47:18.707Z,28.40
2022-08-26T19:49:47.708Z,28.30
2022-08-26T19:52:17.837Z,28.50
2022-08-26T19:54:46.948Z,28.40
2022-08-26T19:57:15.980Z,28.10
2022-08-26T19:59:44.999Z,28.00
2022-08-26T20:02:13.645Z,28.00
2022-08-26T20:04:43.017Z,28.20
2022-08-26T20:07:15.316Z,28.40
2022-08-26T20:09:49.598Z,28.50
2022-08-26T20:12:19.299Z,28.20
2022-08-26T20:14:48.150Z,28.20
2022-08-26T20:17:17.761Z,28.20
2022-08-26T20:20:04.868Z,28.20
2022-08-26T20:22:34.378Z,28.20
2022-08-26T20:25:05.639Z,28.30
2022-08-26T20:27:38.295Z,28.40
2022-08-26T20:30:08.958Z,28.50
2022-08-26T20:32:39.362Z,28.40
2022-08-26T20:35:10.317Z,28.50
2022-08-26T20:37:40.444Z,28.50
2022-08-26T20:40:14.465Z,28.50
2022-08-26T20:42:43.743Z,28.50
2022-08-26T20:45:12.868Z,28.50
2022-08-26T20:47:42.266Z,28.50
2022-08-26T20:50:10.877Z,28.50
2022-08-26T20:52:39.650Z,28.50
2022-08-26T20:55:10.319Z,28.50
2022-08-26T20:57:38.951Z,28.60
2022-08-26T21:00:08.769Z,28.40
2022-08-26T21:02:37.411Z,28.40
2022-08-26T21:05:09.120Z,28.30
2022-08-26T21:07:37.748Z,28.30
2022-08-26T21:10:06.689Z,28.40
2022-08-26T21:12:36.868Z,28.40
2022-08-26T21:15:06.128Z,28.30
2022-08-26T21:17:34.837Z,28.30
2022-08-26T21:20:04.358Z,28.20
2022-08-26T21:22:33.148Z,28.10
2022-08-26T21:25:02.480Z,28.20
2022-08-26T21:27:30.776Z,28.10
2022-08-26T21:30:00.879Z,28.10
2022-08-26T21:32:29.688Z,28.00
2022-08-26T21:34:59.156Z,28.00
2022-08-26T21:37:28.855Z,27.90
2022-08-26T21:39:58.782Z,28.00
2022-08-26T21:42:34.932Z,27.90
2022-08-26T21:45:05.386Z,27.90
2022-08-26T21:47:35.255Z,27.80
2022-08-26T21:50:04.696Z,27.80
2022-08-26T21:52:32.848Z,27.90
2022-08-26T21:55:02.417Z,27.80
2022-08-26T21:57:32.105Z,27.70
2022-08-26T22:00:00.847Z,27.70
2022-08-26T22:02:35.318Z,27.70
2022-08-26T22:05:03.685Z,27.80
2022-08-26T22:07:31.986Z,27.80
2022-08-26T22:09:59.987Z,27.80
2022-08-26T22:12:28.578Z,27.70
2022-08-26T22:14:57.006Z,27.70
2022-08-26T22:17:25.095Z,27.70
2022-08-26T22:19:55.486Z,27.70
2022-08-26T22:22:26.509Z,27.70
2022-08-26T22:24:54.764Z,27.70
2022-08-26T22:27:23.375Z,27.70
2022-08-26T22:29:51.757Z,27.60
2022-08-26T22:32:20.407Z,27.50
2022-08-26T22:34:48.986Z,27.50
2022-08-26T22:37:18.855Z,27.50
2022-08-26T22:39:46.814Z,27.50
2022-08-26T22:42:16.026Z,27.50
2022-08-26T22:44:44.346Z,27.40
2022-08-26T22:47:12.465Z,27.30
2022-08-26T22:49:40.527Z,27.30
2022-08-26T22:52:09.125Z,27.20
2022-08-26T22:54:38.595Z,27.10
2022-08-26T22:57:07.166Z,27.20
2022-08-26T22:59:35.175Z,27.10
2022-08-26T23:02:03.515Z,26.90
2022-08-26T23:04:31.455Z,27.00
2022-08-26T23:07:02.979Z,27.10
2022-08-26T23:09:31.037Z,27.00
2022-08-26T23:12:00.588Z,26.90
2022-08-26T23:14:28.617Z,26.90
2022-08-26T23:16:56.672Z,27.00
2022-08-26T23:19:24.875Z,26.90
2022-08-26T23:21:52.975Z,27.00
2022-08-26T23:24:21.006Z,26.90
2022-08-26T23:26:49.455Z,27.10
2022-08-26T23:29:19.097Z,27.00
2022-08-26T23:31:47.446Z,27.00
2022-08-26T23:34:34.137Z,27.00
2022-08-26T23:37:02.826Z,27.00
2022-08-26T23:39:35.576Z,26.90
2022-08-26T23:42:04.488Z,26.80
2022-08-26T23:44:34.066Z,26.70
2022-08-26T23:47:02.585Z,26.70
2022-08-26T23:49:31.366Z,26.80
2022-08-26T23:52:18.557Z,26.80
2022-08-26T23:54:48.927Z,26.60
2022-08-26T23:57:18.718Z,26.50
2022-08-26T23:59:48.825Z,26.50
